createdAt,value
2024-03-16T00:00:57.521Z,88398.00
2024-03-16T00:01:57.554Z,88398.00
2024-03-16T00:02:57.513Z,88399.00
2024-03-16T00:03:57.623Z,88400.00
2024-03-16T00:04:57.621Z,88401.00
2024-03-16T00:05:57.721Z,88396.00
2024-03-16T00:06:57.736Z,88396.00
2024-03-16T00:07:57.750Z,88394.00
2024-03-16T00:08:57.769Z,88392.00
2024-03-16T00:09:57.825Z,88393.00
2024-03-16T00:10:57.853Z,88387.00
2024-03-16T00:11:57.885Z,88387.00
2024-03-16T00:12:57.955Z,88385.00
2024-03-16T00:13:58.007Z,88386.00
2024-03-16T00:14:58.051Z,88386.00
2024-03-16T00:15:58.107Z,88382.00
2024-03-16T00:16:58.111Z,88382.00
2024-03-16T00:17:58.162Z,88379.00
2024-03-16T00:18:58.204Z,88379.00
2024-03-16T00:19:58.221Z,88379.00
2024-03-16T00:20:58.254Z,88377.00
2024-03-16T00:21:58.289Z,88378.00
2024-03-16T00:22:58.312Z,88376.00
2024-03-16T00:23:58.368Z,88375.00
2024-03-16T00:24:58.464Z,88374.00
2024-03-16T00:25:58.428Z,88372.00
2024-03-16T00:26:58.480Z,88374.00
2024-03-16T00:27:58.636Z,88374.00
2024-03-16T00:28:58.579Z,88374.00
2024-03-16T00:29:58.624Z,88373.00
2024-03-16T00:30:58.674Z,88374.00
2024-03-16T00:31:58.693Z,88374.00
2024-03-16T00:32:58.768Z,88375.00
2024-03-16T00:33:58.794Z,88375.00
2024-03-16T00:34:58.791Z,88375.00
2024-03-16T00:35:58.855Z,88375.00
2024-03-16T00:36:58.890Z,88374.00
2024-03-16T00:37:58.898Z,88372.00
2024-03-16T00:38:58.994Z,88371.00
2024-03-16T00:39:59.016Z,88372.00
2024-03-16T00:40:59.020Z,88372.00
2024-03-16T00:41:59.054Z,88372.00
2024-03-16T00:42:59.102Z,88373.00
2024-03-16T00:43:59.120Z,88373.00
2024-03-16T00:44:59.151Z,88377.00
2024-03-16T00:45:59.180Z,88376.00
2024-03-16T00:46:59.180Z,88379.00
2024-03-16T00:47:59.198Z,88381.00
2024-03-16T00:48:59.294Z,88382.00
2024-03-16T00:49:59.245Z,88384.00
2024-03-16T00:50:59.255Z,88383.00
2024-03-16T00:51:59.336Z,88381.00
2024-03-16T00:52:59.223Z,88379.00
2024-03-16T00:53:59.225Z,88377.00
2024-03-16T00:54:59.222Z,88374.00
2024-03-16T00:55:59.193Z,88377.00
2024-03-16T00:56:59.189Z,88377.00
2024-03-16T00:57:59.222Z,88377.00
2024-03-16T00:58:59.175Z,88377.00
2024-03-16T00:59:59.177Z,88378.00
2024-03-16T01:00:59.295Z,88380.00
2024-03-16T01:01:59.268Z,88378.00
2024-03-16T01:02:59.303Z,88380.00
2024-03-16T01:03:59.344Z,88382.00
2024-03-16T01:04:59.369Z,88386.00
2024-03-16T01:05:59.418Z,88388.00
2024-03-16T01:06:59.507Z,88390.00
2024-03-16T01:07:59.498Z,88393.00
2024-03-16T01:08:59.565Z,88388.00
2024-03-16T01:09:59.643Z,88391.00
2024-03-16T01:10:59.647Z,88393.00
2024-03-16T01:11:59.687Z,88393.00
2024-03-16T01:12:59.783Z,88391.00
2024-03-16T01:13:59.781Z,88393.00
2024-03-16T01:14:59.813Z,88395.00
2024-03-16T01:15:59.875Z,88393.00
2024-03-16T01:16:59.864Z,88395.00
2024-03-16T01:17:59.944Z,88393.00
2024-03-16T01:18:59.998Z,88396.00
2024-03-16T01:20:00.045Z,88392.00
2024-03-16T01:20:59.993Z,88390.00
2024-03-16T01:22:00.069Z,88388.00
2024-03-16T01:23:00.047Z,88387.00
2024-03-16T01:24:00.054Z,88387.00
2024-03-16T01:25:00.158Z,88386.00
2024-03-16T01:26:00.052Z,88389.00
2024-03-16T01:27:00.085Z,88390.00
2024-03-16T01:28:00.177Z,88390.00
2024-03-16T01:29:00.109Z,88391.00
2024-03-16T01:30:00.195Z,88391.00
2024-03-16T01:31:00.343Z,88389.00
2024-03-16T01:32:00.238Z,88390.00
2024-03-16T01:33:00.351Z,88392.00
2024-03-16T01:34:00.365Z,88395.00
2024-03-16T01:35:00.362Z,88397.00
2024-03-16T01:36:00.432Z,88397.00
2024-03-16T01:37:00.604Z,88396.00
2024-03-16T01:38:00.529Z,88396.00
2024-03-16T01:39:00.623Z,88397.00
2024-03-16T01:40:00.691Z,88396.00
2024-03-16T01:41:00.672Z,88395.00
2024-03-16T01:42:00.757Z,88393.00
2024-03-16T01:43:00.882Z,88390.00
2024-03-16T01:44:00.849Z,88388.00
2024-03-16T01:45:00.834Z,88387.00
2024-03-16T01:46:00.903Z,88389.00
2024-03-16T01:47:00.835Z,88388.00
2024-03-16T01:48:00.874Z,88389.00
2024-03-16T01:49:00.855Z,88387.00
2024-03-16T01:50:00.799Z,88386.00
2024-03-16T01:51:00.768Z,88383.00
2024-03-16T01:52:00.870Z,88380.00
2024-03-16T01:53:00.801Z,88377.00
2024-03-16T01:54:00.871Z,88377.00
2024-03-16T01:55:00.917Z,88371.00
2024-03-16T01:56:00.972Z,88368.00
2024-03-16T01:57:01.021Z,88363.00
2024-03-16T01:58:01.105Z,88362.00
2024-03-16T01:59:01.164Z,88363.00
2024-03-16T02:00:01.112Z,88366.00
2024-03-16T02:01:01.261Z,88367.00
2024-03-16T02:02:01.184Z,88368.00
2024-03-16T02:03:01.185Z,88369.00
2024-03-16T02:04:01.732Z,88371.00
2024-03-16T02:05:01.361Z,88371.00
2024-03-16T02:06:01.331Z,88372.00
2024-03-16T02:07:01.470Z,88372.00
2024-03-16T02:08:01.451Z,88376.00
2024-03-16T02:09:01.567Z,88376.00
2024-03-16T02:10:01.807Z,88375.00
2024-03-16T02:11:01.686Z,88376.00
2024-03-16T02:12:01.667Z,88377.00
2024-03-16T02:13:01.767Z,88377.00
2024-03-16T02:14:01.767Z,88378.00
2024-03-16T02:15:01.865Z,88382.00
2024-03-16T02:16:01.933Z,88383.00
2024-03-16T02:17:01.881Z,88382.00
2024-03-16T02:18:02.006Z,88385.00
2024-03-16T02:19:02.112Z,88386.00
2024-03-16T02:20:02.017Z,88388.00
2024-03-16T02:21:02.042Z,88388.00
2024-03-16T02:22:02.124Z,88388.00
2024-03-16T02:23:02.042Z,88392.00
2024-03-16T02:24:02.097Z,88394.00
2024-03-16T02:25:02.197Z,88397.00
2024-03-16T02:26:02.210Z,88398.00
2024-03-16T02:27:02.239Z,88398.00
2024-03-16T02:28:02.364Z,88397.00
2024-03-16T02:29:02.342Z,88399.00
2024-03-16T02:30:02.379Z,88399.00
2024-03-16T02:31:02.518Z,88402.00
2024-03-16T02:32:02.470Z,88402.00
2024-03-16T02:33:02.554Z,88400.00
2024-03-16T02:34:02.624Z,88397.00
2024-03-16T02:35:02.620Z,88398.00
2024-03-16T02:36:02.653Z,88396.00
2024-03-16T02:37:02.798Z,88395.00
2024-03-16T02:38:02.752Z,88394.00
2024-03-16T02:39:02.817Z,88397.00
2024-03-16T02:40:03.037Z,88399.00
2024-03-16T02:41:02.895Z,88398.00
2024-03-16T02:42:02.928Z,88400.00
2024-03-16T02:43:03.045Z,88398.00
2024-03-16T02:44:03.068Z,88401.00
2024-03-16T02:45:03.046Z,88401.00
2024-03-16T02:46:03.189Z,88404.00
2024-03-16T02:47:03.085Z,88404.00
2024-03-16T02:48:03.260Z,88407.00
2024-03-16T02:49:03.172Z,88410.00
2024-03-16T02:50:03.147Z,88411.00
2024-03-16T02:51:03.180Z,88410.00
2024-03-16T02:52:03.196Z,88413.00
2024-03-16T02:53:03.156Z,88415.00
2024-03-16T02:54:03.221Z,88417.00
2024-03-16T02:55:03.341Z,88414.00
2024-03-16T02:56:03.223Z,88414.00
2024-03-16T02:57:03.236Z,88417.00
2024-03-16T02:58:03.298Z,88418.00
2024-03-16T02:59:03.328Z,88421.00
2024-03-16T03:00:03.348Z,88420.00
2024-03-16T03:01:03.501Z,88424.00
2024-03-16T03:02:03.441Z,88423.00
2024-03-16T03:03:03.424Z,88422.00
2024-03-16T03:04:03.577Z,88424.00
2024-03-16T03:05:03.507Z,88426.00
2024-03-16T03:06:03.515Z,88424.00
2024-03-16T03:07:03.610Z,88427.00
2024-03-16T03:08:03.595Z,88424.00
2024-03-16T03:09:03.644Z,88426.00
2024-03-16T03:10:03.729Z,88424.00
2024-03-16T03:11:03.777Z,88426.00
2024-03-16T03:12:03.630Z,88422.00
2024-03-16T03:13:03.644Z,88424.00
2024-03-16T03:14:03.606Z,88424.00
2024-03-16T03:15:03.592Z,88426.00
2024-03-16T03:16:03.703Z,88424.00
2024-03-16T03:17:03.566Z,88424.00
2024-03-16T03:18:03.683Z,88426.00
2024-03-16T03:19:03.744Z,88425.00
2024-03-16T03:20:03.684Z,88425.00
2024-03-16T03:21:03.723Z,88428.00
2024-03-16T03:22:03.798Z,88429.00
2024-03-16T03:23:03.761Z,88430.00
2024-03-16T03:24:03.812Z,88432.00
2024-03-16T03:25:03.981Z,88432.00
2024-03-16T03:26:03.843Z,88435.00
2024-03-16T03:27:03.873Z,88437.00
2024-03-16T03:28:03.940Z,88437.00
2024-03-16T03:29:03.968Z,88437.00
2024-03-16T03:30:04.009Z,88437.00
2024-03-16T03:31:04.148Z,88438.00
2024-03-16T03:32:04.086Z,88438.00
2024-03-16T03:33:04.145Z,88439.00
2024-03-16T03:34:04.169Z,88443.00
2024-03-16T03:35:04.136Z,88441.00
2024-03-16T03:36:04.204Z,88440.00
2024-03-16T03:37:04.346Z,88440.00
2024-03-16T03:38:04.325Z,88442.00
2024-03-16T03:39:04.387Z,88441.00
2024-03-16T03:40:04.493Z,88443.00
2024-03-16T03:41:04.364Z,88444.00
2024-03-16T03:42:04.364Z,88447.00
2024-03-16T03:43:04.445Z,88448.00
2024-03-16T03:44:04.346Z,88453.00
2024-03-16T03:45:04.349Z,88455.00
2024-03-16T03:46:04.402Z,88458.00
2024-03-16T03:47:04.350Z,88457.00
2024-03-16T03:48:04.767Z,88460.00
2024-03-16T03:49:04.388Z,88461.00
2024-03-16T03:50:04.318Z,88461.00
2024-03-16T03:51:04.314Z,88461.00
2024-03-16T03:52:05.628Z,88463.00
2024-03-16T03:53:04.540Z,88465.00
2024-03-16T03:54:04.441Z,88467.00
2024-03-16T03:55:04.549Z,88468.00
2024-03-16T03:56:04.528Z,88468.00
2024-03-16T03:57:04.561Z,88469.00
2024-03-16T03:58:04.670Z,88467.00
2024-03-16T03:59:04.647Z,88469.00
2024-03-16T04:00:04.702Z,88470.00
2024-03-16T04:01:04.847Z,88469.00
2024-03-16T04:02:04.816Z,88472.00
2024-03-16T04:03:04.862Z,88475.00
2024-03-16T04:04:04.977Z,88476.00
2024-03-16T04:05:04.940Z,88478.00
2024-03-16T04:06:04.957Z,88480.00
2024-03-16T04:07:05.063Z,88477.00
2024-03-16T04:08:04.985Z,88477.00
2024-03-16T04:09:05.006Z,88478.00
2024-03-16T04:10:05.100Z,88483.00
2024-03-16T04:11:06.786Z,88486.00
2024-03-16T04:12:05.067Z,88489.00
2024-03-16T04:13:05.215Z,88487.00
2024-03-16T04:14:05.067Z,88488.00
2024-03-16T04:15:05.046Z,88492.00
2024-03-16T04:16:05.112Z,88492.00
2024-03-16T04:17:05.027Z,88491.00
2024-03-16T04:18:05.103Z,88487.00
2024-03-16T04:19:05.147Z,88485.00
2024-03-16T04:20:04.991Z,88484.00
2024-03-16T04:21:05.011Z,88487.00
2024-03-16T04:22:04.995Z,88488.00
2024-03-16T04:23:04.957Z,88483.00
2024-03-16T04:24:04.935Z,88483.00
2024-03-16T04:25:05.093Z,88483.00
2024-03-16T04:26:04.909Z,88484.00
2024-03-16T04:27:04.899Z,88483.00
2024-03-16T04:28:05.002Z,88481.00
2024-03-16T04:29:04.905Z,88481.00
2024-03-16T04:30:04.876Z,88479.00
2024-03-16T04:31:04.938Z,88478.00
2024-03-16T04:32:04.860Z,88476.00
2024-03-16T04:33:04.905Z,88475.00
2024-03-16T04:34:04.913Z,88472.00
2024-03-16T04:35:04.808Z,88468.00
2024-03-16T04:36:04.817Z,88462.00
2024-03-16T04:37:04.843Z,88459.00
2024-03-16T04:38:04.817Z,88452.00
2024-03-16T04:39:04.770Z,88453.00
2024-03-16T04:40:04.872Z,88450.00
2024-03-16T04:41:04.746Z,88447.00
2024-03-16T04:42:04.734Z,88449.00
2024-03-16T04:43:04.787Z,88448.00
2024-03-16T04:44:12.077Z,88448.00
2024-03-16T04:45:12.077Z,88448.00
2024-03-16T04:46:12.121Z,88452.00
2024-03-16T04:47:12.091Z,88451.00
2024-03-16T04:48:12.195Z,88453.00
2024-03-16T04:49:12.165Z,88453.00
2024-03-16T04:50:12.132Z,88454.00
2024-03-16T04:51:12.165Z,88452.00
2024-03-16T04:52:12.170Z,88449.00
2024-03-16T04:53:12.206Z,88451.00
2024-03-16T04:54:12.204Z,88449.00
2024-03-16T04:55:12.454Z,88450.00
2024-03-16T04:56:12.194Z,88451.00
2024-03-16T04:57:12.205Z,88451.00
2024-03-16T04:58:12.366Z,88451.00
2024-03-16T04:59:12.235Z,88453.00
2024-03-16T05:00:12.240Z,88451.00
2024-03-16T05:01:12.330Z,88451.00
2024-03-16T05:02:12.263Z,88449.00
2024-03-16T05:03:12.322Z,88451.00
2024-03-16T05:04:12.353Z,88451.00
2024-03-16T05:05:12.306Z,88452.00
2024-03-16T05:06:12.310Z,88454.00
2024-03-16T05:07:12.389Z,88454.00
2024-03-16T05:08:12.349Z,88455.00
2024-03-16T05:09:12.372Z,88452.00
2024-03-16T05:10:12.466Z,88453.00
2024-03-16T05:11:12.428Z,88454.00
2024-03-16T05:12:12.390Z,88455.00
2024-03-16T05:13:12.465Z,88457.00
2024-03-16T05:14:12.426Z,88459.00
2024-03-16T05:15:12.440Z,88465.00
2024-03-16T05:16:12.534Z,88464.00
2024-03-16T05:17:12.462Z,88467.00
2024-03-16T05:18:12.496Z,88467.00
2024-03-16T05:19:12.637Z,88470.00
2024-03-16T05:20:12.521Z,88469.00
2024-03-16T05:21:12.584Z,88470.00
2024-03-16T05:22:12.712Z,88469.00
2024-03-16T05:23:12.741Z,88467.00
2024-03-16T05:24:12.833Z,88464.00
2024-03-16T05:25:12.983Z,88461.00
2024-03-16T05:26:12.973Z,88460.00
2024-03-16T05:27:13.044Z,88458.00
2024-03-16T05:28:13.153Z,88457.00
2024-03-16T05:29:13.236Z,88456.00
2024-03-16T05:30:13.311Z,88454.00
2024-03-16T05:31:13.429Z,88455.00
2024-03-16T05:32:13.463Z,88452.00
2024-03-16T05:33:13.720Z,88450.00
2024-03-16T05:34:13.666Z,88451.00
2024-03-16T05:35:13.695Z,88450.00
2024-03-16T05:36:13.803Z,88454.00
2024-03-16T05:37:13.964Z,88457.00
2024-03-16T05:38:13.968Z,88461.00
2024-03-16T05:39:14.053Z,88463.00
2024-03-16T05:40:14.168Z,88468.00
2024-03-16T05:41:14.230Z,88469.00
2024-03-16T05:42:14.303Z,88468.00
2024-03-16T05:43:14.436Z,88469.00
2024-03-16T05:44:14.455Z,88470.00
2024-03-16T05:45:14.534Z,88470.00
2024-03-16T05:46:14.673Z,88472.00
2024-03-16T05:47:14.753Z,88474.00
2024-03-16T05:48:14.844Z,88475.00
2024-03-16T05:49:14.922Z,88476.00
2024-03-16T05:50:15.004Z,88478.00
2024-03-16T05:51:15.028Z,88475.00
2024-03-16T05:52:15.115Z,88477.00
2024-03-16T05:53:15.171Z,88476.00
2024-03-16T05:54:15.251Z,88479.00
2024-03-16T05:55:15.355Z,88477.00
2024-03-16T05:56:15.408Z,88483.00
2024-03-16T05:57:15.550Z,88482.00
2024-03-16T05:58:15.603Z,88483.00
2024-03-16T05:59:15.680Z,88480.00
2024-03-16T06:00:15.776Z,88479.00
2024-03-16T06:01:15.888Z,88476.00
2024-03-16T06:02:15.920Z,88477.00
2024-03-16T06:03:15.992Z,88473.00
2024-03-16T06:04:16.114Z,88473.00
2024-03-16T06:05:16.166Z,88475.00
2024-03-16T06:06:16.232Z,88475.00
2024-03-16T06:07:16.371Z,88474.00
2024-03-16T06:08:16.404Z,88476.00
2024-03-16T06:09:16.489Z,88476.00
2024-03-16T06:10:16.672Z,88480.00
2024-03-16T06:11:16.913Z,88479.00
2024-03-16T06:12:16.746Z,88477.00
2024-03-16T06:13:16.875Z,88480.00
2024-03-16T06:14:16.907Z,88481.00
2024-03-16T06:15:16.984Z,88480.00
2024-03-16T06:16:17.126Z,88483.00
2024-03-16T06:17:17.129Z,88483.00
2024-03-16T06:18:17.224Z,88486.00
2024-03-16T06:19:17.363Z,88488.00
2024-03-16T06:20:17.379Z,88489.00
2024-03-16T06:21:17.453Z,88488.00
2024-03-16T06:22:17.575Z,88488.00
2024-03-16T06:23:17.609Z,88491.00
2024-03-16T06:24:17.708Z,88494.00
2024-03-16T06:25:17.892Z,88493.00
2024-03-16T06:26:17.962Z,88496.00
2024-03-16T06:27:17.958Z,88499.00
2024-03-16T06:28:18.191Z,88499.00
2024-03-16T06:29:18.133Z,88503.00
2024-03-16T06:30:18.234Z,88501.00
2024-03-16T06:31:18.425Z,88504.00
2024-03-16T06:32:18.380Z,88505.00
2024-03-16T06:33:18.463Z,88505.00
2024-03-16T06:34:18.579Z,88505.00
2024-03-16T06:35:18.615Z,88504.00
2024-03-16T06:36:18.725Z,88502.00
2024-03-16T06:37:19.095Z,88502.00
2024-03-16T06:38:18.881Z,88502.00
2024-03-16T06:39:18.934Z,88502.00
2024-03-16T06:40:19.072Z,88505.00
2024-03-16T06:41:19.104Z,88508.00
2024-03-16T06:42:19.177Z,88509.00
2024-03-16T06:43:19.335Z,88509.00
2024-03-16T06:44:19.330Z,88509.00
2024-03-16T06:45:19.406Z,88510.00
2024-03-16T06:46:19.583Z,88511.00
2024-03-16T06:47:19.556Z,88510.00
2024-03-16T06:48:19.585Z,88510.00
2024-03-16T06:49:19.650Z,88509.00
2024-03-16T06:50:19.596Z,88510.00
2024-03-16T06:51:19.626Z,88512.00
2024-03-16T06:52:19.661Z,88513.00
2024-03-16T06:53:19.645Z,88513.00
2024-03-16T06:54:19.666Z,88512.00
2024-03-16T06:55:19.768Z,88511.00
2024-03-16T06:56:19.740Z,88510.00
2024-03-16T06:57:19.833Z,88511.00
2024-03-16T06:58:19.892Z,88514.00
2024-03-16T06:59:19.883Z,88516.00
2024-03-16T07:00:19.915Z,88519.00
2024-03-16T07:01:20.001Z,88518.00
2024-03-16T07:02:19.925Z,88520.00
2024-03-16T07:03:19.926Z,88523.00
2024-03-16T07:04:20.003Z,88525.00
2024-03-16T07:05:19.965Z,88526.00
2024-03-16T07:06:20.034Z,88529.00
2024-03-16T07:07:20.045Z,88529.00
2024-03-16T07:08:20.026Z,88527.00
2024-03-16T07:09:20.186Z,88526.00
2024-03-16T07:10:20.136Z,88525.00
2024-03-16T07:11:20.233Z,88525.00
2024-03-16T07:12:20.201Z,88526.00
2024-03-16T07:13:20.294Z,88527.00
2024-03-16T07:14:20.354Z,88527.00
2024-03-16T07:15:20.426Z,88527.00
2024-03-16T07:16:20.566Z,88527.00
2024-03-16T07:17:20.595Z,88529.00
2024-03-16T07:18:20.807Z,88528.00
2024-03-16T07:19:20.791Z,88533.00
2024-03-16T07:20:20.801Z,88531.00
2024-03-16T07:21:20.897Z,88532.00
2024-03-16T07:22:21.016Z,88534.00
2024-03-16T07:23:21.027Z,88534.00
2024-03-16T07:24:21.126Z,88536.00
2024-03-16T07:25:21.237Z,88538.00
2024-03-16T07:26:21.249Z,88541.00
2024-03-16T07:27:21.326Z,88543.00
2024-03-16T07:28:21.453Z,88546.00
2024-03-16T07:29:21.485Z,88549.00
2024-03-16T07:30:21.570Z,88549.00
2024-03-16T07:31:21.669Z,88551.00
2024-03-16T07:32:21.706Z,88549.00
2024-03-16T07:33:21.767Z,88550.00
2024-03-16T07:34:21.945Z,88551.00
2024-03-16T07:35:21.904Z,88548.00
2024-03-16T07:36:21.991Z,88546.00
2024-03-16T07:37:22.047Z,88546.00
2024-03-16T07:38:22.122Z,88547.00
2024-03-16T07:39:22.193Z,88548.00
2024-03-16T07:40:22.293Z,88549.00
2024-03-16T07:41:22.287Z,88550.00
2024-03-16T07:42:22.360Z,88550.00
2024-03-16T07:43:22.396Z,88550.00
2024-03-16T07:44:22.390Z,88551.00
2024-03-16T07:45:22.406Z,88551.00
2024-03-16T07:46:22.461Z,88552.00
2024-03-16T07:47:22.447Z,88555.00
2024-03-16T07:48:22.449Z,88555.00
2024-03-16T07:49:22.534Z,88555.00
2024-03-16T07:50:22.487Z,88555.00
2024-03-16T07:51:22.519Z,88554.00
2024-03-16T07:52:22.559Z,88554.00
2024-03-16T07:53:22.555Z,88555.00
2024-03-16T07:54:22.639Z,88556.00
2024-03-16T07:55:22.735Z,88556.00
2024-03-16T07:56:22.783Z,88554.00
2024-03-16T07:57:22.847Z,88553.00
2024-03-16T07:58:22.987Z,88551.00
2024-03-16T07:59:23.015Z,88551.00
2024-03-16T08:00:23.058Z,88551.00
2024-03-16T08:01:23.223Z,88552.00
2024-03-16T08:02:23.258Z,88553.00
2024-03-16T08:03:23.307Z,88553.00
2024-03-16T08:04:23.357Z,88554.00
2024-03-16T08:05:23.436Z,88553.00
2024-03-16T08:06:23.508Z,88555.00
2024-03-16T08:07:23.603Z,88554.00
2024-03-16T08:08:23.710Z,88554.00
2024-03-16T08:09:23.701Z,88556.00
2024-03-16T08:10:23.901Z,88557.00
2024-03-16T08:11:23.875Z,88560.00
2024-03-16T08:12:23.905Z,88562.00
2024-03-16T08:13:24.032Z,88563.00
2024-03-16T08:14:24.064Z,88562.00
2024-03-16T08:15:24.115Z,88562.00
2024-03-16T08:16:24.215Z,88565.00
2024-03-16T08:17:24.243Z,88564.00
2024-03-16T08:18:24.316Z,88564.00
2024-03-16T08:19:24.437Z,88563.00
2024-03-16T08:20:24.441Z,88563.00
2024-03-16T08:21:24.514Z,88563.00
2024-03-16T08:22:24.649Z,88563.00
2024-03-16T08:23:24.631Z,88562.00
2024-03-16T08:24:24.723Z,88561.00
2024-03-16T08:25:24.841Z,88560.00
2024-03-16T08:26:24.796Z,88560.00
2024-03-16T08:27:27.695Z,88561.00
2024-03-16T08:28:24.967Z,88561.00
2024-03-16T08:29:24.890Z,88558.00
2024-03-16T08:30:24.912Z,88557.00
2024-03-16T08:31:24.999Z,88556.00
2024-03-16T08:32:24.923Z,88556.00
2024-03-16T08:33:24.945Z,88551.00
2024-03-16T08:34:24.998Z,88550.00
2024-03-16T08:35:24.965Z,88553.00
2024-03-16T08:36:25.078Z,88553.00
2024-03-16T08:37:25.015Z,88551.00
2024-03-16T08:38:25.042Z,88554.00
2024-03-16T08:39:25.084Z,88554.00
2024-03-16T08:40:25.112Z,88553.00
2024-03-16T08:41:25.113Z,88551.00
2024-03-16T08:42:25.183Z,88551.00
2024-03-16T08:43:25.280Z,88549.00
2024-03-16T08:44:25.299Z,88549.00
2024-03-16T08:45:25.351Z,88548.00
2024-03-16T08:46:28.064Z,88549.00
2024-03-16T08:47:25.408Z,88550.00
2024-03-16T08:48:25.470Z,88549.00
2024-03-16T08:49:25.469Z,88549.00
2024-03-16T08:50:25.446Z,88551.00
2024-03-16T08:51:25.443Z,88550.00
2024-03-16T08:52:25.595Z,88551.00
2024-03-16T08:53:25.478Z,88549.00
2024-03-16T08:54:25.514Z,88548.00
2024-03-16T08:55:25.695Z,88548.00
2024-03-16T08:56:25.536Z,88548.00
2024-03-16T08:57:25.539Z,88548.00
2024-03-16T08:58:25.582Z,88549.00
2024-03-16T08:59:25.569Z,88549.00
2024-03-16T09:00:25.582Z,88548.00
2024-03-16T09:01:25.721Z,88549.00
2024-03-16T09:02:25.608Z,88548.00
2024-03-16T09:03:25.618Z,88548.00
2024-03-16T09:04:25.630Z,88550.00
2024-03-16T09:05:25.635Z,88550.00
2024-03-16T09:06:25.657Z,88549.00
2024-03-16T09:07:25.682Z,88551.00
2024-03-16T09:08:25.669Z,88551.00
2024-03-16T09:09:25.688Z,88553.00
2024-03-16T09:10:25.737Z,88554.00
2024-03-16T09:11:27.408Z,88554.00
2024-03-16T09:12:25.707Z,88554.00
2024-03-16T09:13:25.726Z,88551.00
2024-03-16T09:14:25.732Z,88553.00
2024-03-16T09:15:25.721Z,88555.00
2024-03-16T09:16:25.792Z,88557.00
2024-03-16T09:17:25.886Z,88555.00
2024-03-16T09:18:25.741Z,88556.00
2024-03-16T09:19:25.754Z,88556.00
2024-03-16T09:20:25.754Z,88557.00
2024-03-16T09:21:25.759Z,88557.00
2024-03-16T09:22:25.788Z,88559.00
2024-03-16T09:23:25.832Z,88557.00
2024-03-16T09:24:25.896Z,88557.00
2024-03-16T09:25:25.985Z,88556.00
2024-03-16T09:26:25.999Z,88556.00
2024-03-16T09:27:26.040Z,88560.00
2024-03-16T09:28:26.254Z,88560.00
2024-03-16T09:29:26.143Z,88559.00
2024-03-16T09:30:26.194Z,88557.00
2024-03-16T09:31:26.370Z,88559.00
2024-03-16T09:32:26.284Z,88555.00
2024-03-16T09:33:26.318Z,88558.00
2024-03-16T09:34:26.366Z,88556.00
2024-03-16T09:35:26.408Z,88555.00
2024-03-16T09:36:26.461Z,88561.00
2024-03-16T09:37:26.524Z,88560.00
2024-03-16T09:38:26.556Z,88565.00
2024-03-16T09:39:26.628Z,88565.00
2024-03-16T09:40:26.747Z,88566.00
2024-03-16T09:41:26.709Z,88562.00
2024-03-16T09:42:26.755Z,88576.00
2024-03-16T09:43:26.921Z,88575.00
2024-03-16T09:44:26.879Z,88570.00
2024-03-16T09:45:26.948Z,88575.00
2024-03-16T09:46:26.928Z,88575.00
2024-03-16T09:47:26.964Z,88578.00
2024-03-16T09:48:27.596Z,88583.00
2024-03-16T09:49:27.022Z,88585.00
2024-03-16T09:50:27.058Z,88601.00
2024-03-16T09:51:27.086Z,88599.00
2024-03-16T09:52:27.147Z,88600.00
2024-03-16T09:53:27.170Z,88592.00
2024-03-16T09:54:27.241Z,88599.00
2024-03-16T09:55:27.269Z,88603.00
2024-03-16T09:56:27.307Z,88610.00
2024-03-16T09:57:27.350Z,88612.00
2024-03-16T09:58:27.388Z,88607.00
2024-03-16T09:59:30.961Z,88613.00
2024-03-16T10:00:27.424Z,88632.00
2024-03-16T10:01:27.426Z,88637.00
2024-03-16T10:02:27.441Z,88631.00
2024-03-16T10:03:27.464Z,88621.00
2024-03-16T10:04:27.474Z,88621.00
2024-03-16T10:05:27.464Z,88617.00
2024-03-16T10:06:27.492Z,88621.00
2024-03-16T10:07:27.490Z,88623.00
2024-03-16T10:08:27.501Z,88624.00
2024-03-16T10:09:27.516Z,88626.00
2024-03-16T10:10:27.543Z,88624.00
2024-03-16T10:11:27.552Z,88622.00
2024-03-16T10:12:27.525Z,88620.00
2024-03-16T10:13:27.552Z,88621.00
2024-03-16T10:14:27.569Z,88622.00
2024-03-16T10:15:27.555Z,88623.00
2024-03-16T10:16:27.590Z,88624.00
2024-03-16T10:17:27.663Z,88624.00
2024-03-16T10:18:27.604Z,88623.00
2024-03-16T10:19:27.634Z,88622.00
2024-03-16T10:20:27.652Z,88620.00
2024-03-16T10:21:27.658Z,88620.00
2024-03-16T10:22:27.668Z,88622.00
2024-03-16T10:23:27.680Z,88622.00
2024-03-16T10:24:27.748Z,88623.00
2024-03-16T10:25:27.718Z,88625.00
2024-03-16T10:26:27.736Z,88622.00
2024-03-16T10:27:27.749Z,88621.00
2024-03-16T10:28:27.768Z,88622.00
2024-03-16T10:29:27.804Z,88621.00
2024-03-16T10:30:27.829Z,88620.00
2024-03-16T10:31:27.841Z,88620.00
2024-03-16T10:32:27.864Z,88622.00
2024-03-16T10:33:27.873Z,88622.00
2024-03-16T10:34:27.914Z,88622.00
2024-03-16T10:35:27.921Z,88622.00
2024-03-16T10:36:27.959Z,88624.00
2024-03-16T10:37:27.957Z,88625.00
2024-03-16T10:38:28.003Z,88622.00
2024-03-16T10:39:28.083Z,88624.00
2024-03-16T10:40:28.008Z,88624.00
2024-03-16T10:41:28.026Z,88624.00
2024-03-16T10:42:28.055Z,88624.00
2024-03-16T10:43:28.070Z,88619.00
2024-03-16T10:44:28.093Z,88618.00
2024-03-16T10:45:28.102Z,88616.00
2024-03-16T10:46:28.120Z,88613.00
2024-03-16T10:47:28.127Z,88609.00
2024-03-16T10:48:28.152Z,88607.00
2024-03-16T10:49:28.156Z,88602.00
2024-03-16T10:50:28.184Z,88600.00
2024-03-16T10:51:28.181Z,88600.00
2024-03-16T10:52:28.192Z,88600.00
2024-03-16T10:53:28.203Z,88601.00
2024-03-16T10:54:28.223Z,88598.00
2024-03-16T10:55:28.243Z,88596.00
2024-03-16T10:56:28.240Z,88592.00
2024-03-16T10:57:28.265Z,88586.00
2024-03-16T10:58:28.306Z,88583.00
2024-03-16T10:59:28.319Z,88581.00
2024-03-16T11:00:28.350Z,88583.00
2024-03-16T11:01:28.354Z,88580.00
2024-03-16T11:02:28.392Z,88578.00
2024-03-16T11:03:28.412Z,88575.00
2024-03-16T11:04:28.436Z,88572.00
2024-03-16T11:05:28.456Z,88570.00
2024-03-16T11:06:28.458Z,88568.00
2024-03-16T11:07:28.489Z,88566.00
2024-03-16T11:08:28.508Z,88567.00
2024-03-16T11:09:28.535Z,88566.00
2024-03-16T11:10:28.555Z,88564.00
2024-03-16T11:11:28.578Z,88565.00
2024-03-16T11:12:28.583Z,88568.00
2024-03-16T11:13:28.613Z,88570.00
2024-03-16T11:14:28.606Z,88572.00
2024-03-16T11:15:28.657Z,88571.00
2024-03-16T11:16:28.692Z,88570.00
2024-03-16T11:17:28.661Z,88568.00
2024-03-16T11:18:28.735Z,88566.00
2024-03-16T11:19:28.682Z,88561.00
2024-03-16T11:20:28.692Z,88561.00
2024-03-16T11:21:28.688Z,88558.00
2024-03-16T11:22:28.693Z,88560.00
2024-03-16T11:23:28.690Z,88558.00
2024-03-16T11:24:28.727Z,88556.00
2024-03-16T11:25:28.735Z,88556.00
2024-03-16T11:26:28.770Z,88556.00
2024-03-16T11:27:28.773Z,88554.00
2024-03-16T11:28:28.771Z,88553.00
2024-03-16T11:29:28.773Z,88551.00
2024-03-16T11:30:34.313Z,88552.00
2024-03-16T11:31:31.819Z,88556.00
2024-03-16T11:32:28.782Z,88554.00
2024-03-16T11:33:28.781Z,88554.00
2024-03-16T11:34:28.798Z,88552.00
2024-03-16T11:35:28.776Z,88550.00
2024-03-16T11:36:28.788Z,88545.00
2024-03-16T11:37:28.777Z,88544.00
2024-03-16T11:38:28.788Z,88541.00
2024-03-16T11:39:28.798Z,88542.00
2024-03-16T11:40:28.805Z,88545.00
2024-03-16T11:41:28.791Z,88546.00
2024-03-16T11:42:28.804Z,88543.00
2024-03-16T11:43:28.808Z,88544.00
2024-03-16T11:44:28.845Z,88544.00
2024-03-16T11:45:28.825Z,88544.00